createdAt,value
2023-02-22T00:00:43.084Z,101679.44
2023-02-22T00:03:12.318Z,101675.13
2023-02-22T00:05:39.340Z,101670.88
2023-02-22T00:08:09.361Z,101671.66
2023-02-22T00:10:38.372Z,101670.69
2023-02-22T00:13:07.525Z,101672.56
2023-02-22T00:15:34.898Z,101677.94
2023-02-22T00:18:02.222Z,101667.78
2023-02-22T00:20:28.768Z,101663.81
2023-02-22T00:22:56.094Z,101674.84
2023-02-22T00:25:25.210Z,101672.97
2023-02-22T00:27:52.976Z,101675.03
2023-02-22T00:30:26.910Z,101673.47
2023-02-22T00:32:55.906Z,101676.16
2023-02-22T00:35:28.434Z,101671.38
2023-02-22T00:37:57.742Z,101670.59
2023-02-22T00:40:33.302Z,101672.47
2023-02-22T00:43:02.101Z,101670.06
2023-02-22T00:45:31.167Z,101673.88
2023-02-22T00:47:58.873Z,101666.09
2023-02-22T00:50:30.720Z,101663.91
2023-02-22T00:52:59.367Z,101661.22
2023-02-22T00:55:29.276Z,101660.94
2023-02-22T00:57:56.124Z,101651.59
2023-02-22T01:00:34.602Z,101645.69
2023-02-22T01:03:06.746Z,101647.59
2023-02-22T01:05:33.906Z,101638.75
2023-02-22T01:08:01.999Z,101639.81
2023-02-22T01:10:30.640Z,101630.69
2023-02-22T01:12:57.994Z,101641.91
2023-02-22T01:15:28.974Z,101641.91
2023-02-22T01:17:55.793Z,101636.72
2023-02-22T01:20:23.132Z,101632.44
2023-02-22T01:22:51.776Z,101635.13
2023-02-22T01:25:24.419Z,101634.63
2023-02-22T01:27:51.470Z,101637.63
2023-02-22T01:30:24.111Z,101629.38
2023-02-22T01:32:51.472Z,101627.81
2023-02-22T01:35:23.176Z,101632.34
2023-02-22T01:37:49.674Z,101636.16
2023-02-22T01:40:29.596Z,101626.50
2023-02-22T01:43:00.399Z,101614.25
2023-02-22T01:45:29.991Z,101612.66
2023-02-22T01:48:02.174Z,101608.38
2023-02-22T01:50:31.034Z,101615.94
2023-02-22T01:52:58.132Z,101605.56
2023-02-22T01:55:25.550Z,101610.56
2023-02-22T01:58:01.767Z,101613.25
2023-02-22T02:00:28.257Z,101611.19
2023-02-22T02:02:59.807Z,101614.66
2023-02-22T02:05:28.170Z,101610.38
2023-02-22T02:07:54.616Z,101599.13
2023-02-22T02:10:21.586Z,101599.72
2023-02-22T02:12:50.613Z,101594.44
2023-02-22T02:15:25.267Z,101599.34
2023-02-22T02:17:54.484Z,101584.31
2023-02-22T02:20:57.069Z,101591.88
2023-02-22T02:23:51.046Z,101583.81
2023-02-22T02:26:23.438Z,101577.66
2023-02-22T02:29:14.452Z,101582.34
2023-02-22T02:32:18.110Z,101572.19
2023-02-22T02:35:23.136Z,101576.88
2023-02-22T02:38:04.554Z,101573.38
2023-02-22T02:40:45.165Z,101567.78
2023-02-22T02:43:21.533Z,101566.53
2023-02-22T02:46:06.085Z,101556.88
2023-02-22T02:48:34.868Z,101559.94
2023-02-22T02:51:05.715Z,101555.47
2023-02-22T02:53:38.958Z,101559.25
2023-02-22T02:56:06.097Z,101549.91
2023-02-22T02:58:32.569Z,101542.44
2023-02-22T03:01:04.504Z,101539.56
2023-02-22T03:03:43.161Z,101543.91
2023-02-22T03:06:44.186Z,101536.97
2023-02-22T03:09:22.450Z,101540.25
2023-02-22T03:12:19.152Z,101537.16
2023-02-22T03:15:02.949Z,101539.34
2023-02-22T03:17:51.496Z,101534.56
2023-02-22T03:20:32.039Z,101531.09
2023-02-22T03:23:10.456Z,101536.97
2023-02-22T03:25:47.313Z,101528.41
2023-02-22T03:28:17.411Z,101528.13
2023-02-22T03:31:07.729Z,101526.22
2023-02-22T03:33:50.606Z,101530.47
2023-02-22T03:36:24.855Z,101525.94
2023-02-22T03:38:55.547Z,101517.41
2023-02-22T03:41:25.366Z,101516.56
2023-02-22T03:44:04.356Z,101514.72
2023-02-22T03:46:32.669Z,101518.75
2023-02-22T03:49:04.744Z,101509.13
2023-02-22T03:51:31.298Z,101509.72
2023-02-22T03:53:57.934Z,101507.84
2023-02-22T03:56:35.629Z,101509.44
2023-02-22T03:59:10.816Z,101507.06
2023-02-22T04:01:37.474Z,101501.16
2023-02-22T04:04:04.998Z,101494.03
2023-02-22T04:06:31.482Z,101495.38
2023-02-22T04:08:57.902Z,101492.22
2023-02-22T04:11:24.432Z,101491.22
2023-02-22T04:13:50.890Z,101490.41
2023-02-22T04:16:17.503Z,101495.78
2023-02-22T04:18:44.095Z,101492.78
2023-02-22T04:21:10.475Z,101481.78
2023-02-22T04:23:36.988Z,101481.28
2023-02-22T04:26:03.523Z,101478.41
2023-02-22T04:28:30.017Z,101480.59
2023-02-22T04:30:56.498Z,101475.22
2023-02-22T04:33:22.978Z,101472.53
2023-02-22T04:35:49.604Z,101463.69
2023-02-22T04:38:16.007Z,101460.41
2023-02-22T04:40:42.603Z,101464.41
2023-02-22T04:43:09.124Z,101458.75
2023-02-22T04:45:36.047Z,101456.84
2023-02-22T04:48:02.654Z,101457.44
2023-02-22T04:50:29.383Z,101452.66
2023-02-22T04:52:56.405Z,101444.13
2023-02-22T04:55:22.813Z,101442.84
2023-02-22T04:57:49.293Z,101439.53
2023-02-22T05:00:17.953Z,101439.03
2023-02-22T05:02:45.450Z,101430.69
2023-02-22T05:05:17.657Z,101437.75
2023-02-22T05:07:44.484Z,101440.94
2023-02-22T05:10:36.679Z,101429.72
2023-02-22T05:13:04.189Z,101423.25
2023-02-22T05:15:30.716Z,101420.38
2023-02-22T05:17:57.357Z,101423.03
2023-02-22T05:20:30.477Z,101416.59
2023-02-22T05:22:59.076Z,101422.75
2023-02-22T05:25:29.500Z,101413.94
2023-02-22T05:28:00.247Z,101412.53
2023-02-22T05:30:30.704Z,101415.72
2023-02-22T05:32:57.202Z,101411.16
2023-02-22T05:35:23.966Z,101414.31
2023-02-22T05:37:50.940Z,101411.16
2023-02-22T05:40:25.274Z,101414.63
2023-02-22T05:42:53.310Z,101408.75
2023-02-22T05:45:22.139Z,101413.84
2023-02-22T05:47:49.014Z,101405.22
2023-02-22T05:50:16.601Z,101407.38
2023-02-22T05:52:43.014Z,101402.63
2023-02-22T05:55:11.300Z,101397.56
2023-02-22T05:57:37.728Z,101395.75
2023-02-22T06:00:06.894Z,101399.22
2023-02-22T06:02:33.901Z,101394.97
2023-02-22T06:05:00.637Z,101388.50
2023-02-22T06:07:27.410Z,101388.81
2023-02-22T06:09:53.949Z,101387.22
2023-02-22T06:12:20.620Z,101375.41
2023-02-22T06:14:49.805Z,101380.78
2023-02-22T06:17:19.714Z,101372.72
2023-02-22T06:19:47.357Z,101366.56
2023-02-22T06:22:19.220Z,101370.06
2023-02-22T06:24:45.931Z,101381.56
2023-02-22T06:27:12.410Z,101380.44
2023-02-22T06:29:41.333Z,101387.69
2023-02-22T06:32:08.118Z,101387.69
2023-02-22T06:34:34.721Z,101392.28
2023-02-22T06:37:01.134Z,101386.13
2023-02-22T06:39:36.328Z,101381.75
2023-02-22T06:42:02.943Z,101376.41
2023-02-22T06:44:29.509Z,101375.63
2023-02-22T06:46:56.593Z,101372.41
2023-02-22T06:49:22.975Z,101365.69
2023-02-22T06:51:49.439Z,101357.34
2023-02-22T06:54:16.093Z,101358.41
2023-02-22T06:56:42.577Z,101360.81
2023-02-22T06:59:09.085Z,101366.94
2023-02-22T07:01:36.091Z,101358.91
2023-02-22T07:04:02.856Z,101359.72
2023-02-22T07:06:29.490Z,101363.19
2023-02-22T07:08:55.975Z,101354.38
2023-02-22T07:11:22.499Z,101355.66
2023-02-22T07:13:49.053Z,101355.66
2023-02-22T07:16:15.628Z,101353.16
2023-02-22T07:18:43.413Z,101353.97
2023-02-22T07:21:10.871Z,101365.19
2023-02-22T07:23:37.834Z,101370.56
2023-02-22T07:26:05.484Z,101365.97
2023-02-22T07:28:32.062Z,101369.97
2023-02-22T07:30:58.964Z,101364.59
2023-02-22T07:33:25.860Z,101365.19
2023-02-22T07:35:52.328Z,101367.06
2023-02-22T07:38:20.830Z,101368.06
2023-02-22T07:40:47.336Z,101370.66
2023-02-22T07:43:23.803Z,101372.22
2023-02-22T07:45:52.788Z,101374.13
2023-02-22T07:48:21.646Z,101377.00
2023-02-22T07:50:48.942Z,101376.81
2023-02-22T07:53:18.389Z,101379.97
2023-02-22T07:55:44.912Z,101382.56
2023-02-22T07:58:17.088Z,101379.69
2023-02-22T08:00:44.244Z,101386.34
2023-02-22T08:03:13.828Z,101392.22
2023-02-22T08:05:44.866Z,101387.34
2023-02-22T08:08:18.183Z,101384.84
2023-02-22T08:10:47.410Z,101389.63
2023-02-22T08:13:14.177Z,101392.09
2023-02-22T08:15:42.105Z,101380.88
2023-02-22T08:18:12.095Z,101381.38
2023-02-22T08:20:40.612Z,101391.19
2023-02-22T08:23:07.936Z,101383.38
2023-02-22T08:25:34.928Z,101386.75
2023-02-22T08:28:04.945Z,101388.00
2023-02-22T08:30:32.427Z,101379.97
2023-02-22T08:32:59.767Z,101378.88
2023-02-22T08:35:27.655Z,101382.06
2023-02-22T08:37:58.535Z,101374.38
2023-02-22T08:40:27.976Z,101380.75
2023-02-22T08:42:55.037Z,101382.81
2023-02-22T08:45:21.556Z,101381.13
2023-02-22T08:47:48.206Z,101387.78
2023-02-22T08:50:28.634Z,101378.94
2023-02-22T08:52:58.641Z,101376.75
2023-02-22T08:55:28.121Z,101374.25
2023-02-22T08:57:54.477Z,101379.03
2023-02-22T09:00:28.825Z,101362.50
2023-02-22T09:03:05.535Z,101363.38
2023-02-22T09:05:33.005Z,101356.31
2023-02-22T09:08:00.757Z,101349.41
2023-02-22T09:10:31.452Z,101352.56
2023-02-22T09:15:51.516Z,101352.69
2023-02-22T09:18:18.284Z,101347.19
2023-02-22T09:20:45.230Z,101341.69
2023-02-22T09:23:14.563Z,101350.75
2023-02-22T09:25:41.321Z,101352.50
2023-02-22T09:28:07.950Z,101350.72
2023-02-22T09:30:36.404Z,101351.66
2023-02-22T09:33:12.447Z,101344.75
2023-02-22T09:35:46.649Z,101344.81
2023-02-22T09:38:16.824Z,101346.06
2023-02-22T09:41:00.003Z,101338.78
2023-02-22T09:43:53.636Z,101338.66
2023-02-22T09:46:23.189Z,101338.66
2023-02-22T09:49:22.339Z,101322.06
2023-02-22T09:51:52.652Z,101322.28
2023-02-22T09:54:36.332Z,101312.84
2023-02-22T09:57:09.028Z,101310.34
2023-02-22T09:59:42.783Z,101306.41
2023-02-22T10:02:24.815Z,101306.22
2023-02-22T10:05:05.863Z,101306.25
2023-02-22T10:07:39.174Z,101305.44
2023-02-22T10:10:07.672Z,101299.41
2023-02-22T10:12:40.776Z,101294.50
2023-02-22T10:15:34.560Z,101288.94
2023-02-22T10:18:42.803Z,101294.66
2023-02-22T10:21:20.325Z,101291.22
2023-02-22T10:23:58.629Z,101295.91
2023-02-22T10:26:33.092Z,101292.69
2023-02-22T10:29:02.718Z,101289.53
2023-02-22T10:31:35.853Z,101292.97
2023-02-22T10:34:05.791Z,101293.66
2023-02-22T10:36:34.366Z,101294.31
2023-02-22T10:39:27.138Z,101290.06
2023-02-22T10:41:58.069Z,101282.91
2023-02-22T10:44:25.235Z,101283.81
2023-02-22T10:46:53.709Z,101286.19
2023-02-22T10:49:23.839Z,101287.75
2023-02-22T10:52:01.463Z,101286.59
2023-02-22T10:54:36.839Z,101289.13
2023-02-22T10:57:04.025Z,101289.97
2023-02-22T10:59:45.238Z,101280.16
2023-02-22T11:02:30.823Z,101285.69
2023-02-22T11:05:00.370Z,101284.41
2023-02-22T11:07:30.521Z,101280.94
2023-02-22T11:10:03.410Z,101276.25
2023-02-22T11:12:38.463Z,101280.50
2023-02-22T11:15:30.339Z,101270.03
2023-02-22T11:18:01.198Z,101270.34
2023-02-22T11:20:34.616Z,101276.22
2023-02-22T11:23:03.532Z,101275.94
2023-02-22T11:25:42.648Z,101269.63
2023-02-22T11:28:15.781Z,101271.81
2023-02-22T11:30:44.804Z,101263.19
2023-02-22T11:33:17.341Z,101280.31
2023-02-22T11:35:58.410Z,101269.50
2023-02-22T11:38:33.413Z,101267.94
2023-02-22T11:41:14.806Z,101270.69
2023-02-22T11:43:43.607Z,101267.13
2023-02-22T11:46:15.429Z,101254.22
2023-02-22T11:48:55.626Z,101261.91
2023-02-22T11:51:34.410Z,101253.28
2023-02-22T11:54:25.458Z,101250.00
2023-02-22T11:56:55.723Z,101241.47
2023-02-22T11:59:41.008Z,101237.38
2023-02-22T12:02:56.558Z,101235.88
2023-02-22T12:05:59.702Z,101233.03
2023-02-22T12:08:44.489Z,101231.00
2023-02-22T12:11:27.569Z,101224.78
2023-02-22T12:14:02.856Z,101228.16
2023-02-22T12:16:45.953Z,101233.31
2023-02-22T12:19:30.842Z,101227.91
2023-02-22T12:22:02.583Z,101227.22
2023-02-22T12:24:44.586Z,101228.81
2023-02-22T12:27:20.645Z,101230.06
2023-02-22T12:29:53.164Z,101228.63
2023-02-22T12:32:35.386Z,101232.38
2023-02-22T12:35:11.793Z,101223.75
2023-02-22T12:38:16.024Z,101216.03
2023-02-22T12:41:09.437Z,101218.78
2023-02-22T12:43:51.871Z,101209.34
2023-02-22T12:46:33.912Z,101210.47
2023-02-22T12:49:19.533Z,101214.31
2023-02-22T12:52:20.860Z,101223.69
2023-02-22T12:55:13.029Z,101207.38
2023-02-22T12:58:07.735Z,101213.81
2023-02-22T13:01:07.132Z,101202.00
2023-02-22T13:03:40.390Z,101201.69
2023-02-22T13:06:25.873Z,101205.59
2023-02-22T13:08:58.296Z,101207.97
2023-02-22T13:11:40.965Z,101206.50
2023-02-22T13:14:50.013Z,101217.31
2023-02-22T13:17:29.271Z,101209.69
2023-02-22T13:20:22.204Z,101210.59
2023-02-22T13:23:07.376Z,101204.38
2023-02-22T13:25:47.183Z,101209.00
2023-02-22T13:28:29.270Z,101198.88
2023-02-22T13:31:09.309Z,101200.75
2023-02-22T13:33:47.853Z,101197.72
2023-02-22T13:36:29.493Z,101205.72
2023-02-22T13:39:15.692Z,101205.63
2023-02-22T13:42:14.133Z,101195.84
2023-02-22T13:44:49.660Z,101202.13
2023-02-22T13:47:28.159Z,101197.41
2023-02-22T13:50:22.412Z,101195.72
2023-02-22T13:52:52.028Z,101192.44
2023-02-22T13:55:28.319Z,101200.88
2023-02-22T13:58:04.902Z,101200.44
2023-02-22T14:00:57.644Z,101202.69
2023-02-22T14:03:40.702Z,101199.53
2023-02-22T14:06:32.187Z,101208.09
2023-02-22T14:09:19.065Z,101202.34
2023-02-22T14:11:47.876Z,101204.50
2023-02-22T14:14:17.860Z,101214.16
2023-02-22T14:16:45.166Z,101207.53
2023-02-22T14:19:23.796Z,101217.88
2023-02-22T14:22:02.065Z,101218.66
2023-02-22T14:24:40.368Z,101214.38
2023-02-22T14:27:06.836Z,101219.00
2023-02-22T14:29:33.420Z,101214.72
2023-02-22T14:32:11.143Z,101222.03
2023-02-22T14:34:44.336Z,101219.88
2023-02-22T14:37:26.353Z,101231.81
2023-02-22T14:40:02.413Z,101224.94
2023-02-22T14:42:35.930Z,101222.25
2023-02-22T14:45:14.254Z,101227.00
2023-02-22T14:47:54.637Z,101220.59
2023-02-22T14:50:27.839Z,101219.56
2023-02-22T14:53:29.646Z,101220.50
2023-02-22T14:56:04.696Z,101219.34
2023-02-22T14:58:57.704Z,101220.50
2023-02-22T15:01:48.876Z,101220.38
2023-02-22T15:04:32.978Z,101218.00
2023-02-22T15:07:07.591Z,101216.75
2023-02-22T15:09:37.508Z,101212.69
2023-02-22T15:12:04.012Z,101219.88
2023-02-22T15:14:39.124Z,101211.78
2023-02-22T15:17:16.961Z,101209.72
2023-02-22T15:19:43.938Z,101213.25
2023-02-22T15:22:25.191Z,101212.44
2023-02-22T15:25:01.502Z,101210.88
2023-02-22T15:27:28.794Z,101207.72
2023-02-22T15:30:05.018Z,101215.03
2023-02-22T15:33:03.099Z,101218.41
2023-02-22T15:35:33.352Z,101222.88
2023-02-22T15:38:10.725Z,101219.41
2023-02-22T15:40:42.907Z,101224.81
2023-02-22T15:43:28.598Z,101228.63
2023-02-22T15:45:56.354Z,101226.59
2023-02-22T15:48:26.560Z,101224.69
2023-02-22T15:51:13.882Z,101237.06
2023-02-22T15:53:44.117Z,101239.19
2023-02-22T15:56:16.964Z,101235.56
2023-02-22T15:58:53.053Z,101238.59
2023-02-22T16:01:20.879Z,101240.19
2023-02-22T16:03:51.019Z,101232.75
2023-02-22T16:06:33.521Z,101232.63
2023-02-22T16:09:06.964Z,101232.81
2023-02-22T16:11:45.494Z,101233.81
2023-02-22T16:14:25.042Z,101244.94
2023-02-22T16:17:14.152Z,101240.31
2023-02-22T16:19:44.213Z,101240.19
2023-02-22T16:22:26.988Z,101244.34
2023-02-22T16:24:54.604Z,101248.03
2023-02-22T16:27:24.558Z,101245.53
2023-02-22T16:30:23.197Z,101260.38
2023-02-22T16:32:51.828Z,101256.72
2023-02-22T16:35:18.800Z,101261.53
2023-02-22T16:37:54.899Z,101255.53
2023-02-22T16:40:37.510Z,101267.00
2023-02-22T16:43:11.987Z,101271.13
2023-02-22T16:45:40.160Z,101273.22
2023-02-22T16:48:19.834Z,101274.34
2023-02-22T16:50:48.488Z,101266.13
2023-02-22T16:53:20.105Z,101266.44
2023-02-22T16:55:52.545Z,101264.41
2023-02-22T16:58:19.270Z,101258.03
2023-02-22T17:00:45.843Z,101265.97
2023-02-22T17:03:18.051Z,101276.00
2023-02-22T17:05:44.903Z,101265.84
2023-02-22T17:08:11.580Z,101273.63
2023-02-22T17:10:38.051Z,101278.41
2023-02-22T17:13:22.976Z,101279.50
2023-02-22T17:15:51.014Z,101278.28
2023-02-22T17:18:23.084Z,101286.34
2023-02-22T17:20:51.120Z,101285.56
2023-02-22T17:23:18.842Z,101293.66
2023-02-22T17:25:50.878Z,101292.06
2023-02-22T17:28:17.374Z,101289.38
2023-02-22T17:30:47.340Z,101296.22
2023-02-22T17:33:17.154Z,101301.28
2023-02-22T17:35:44.451Z,101300.50
2023-02-22T17:38:10.902Z,101290.47
2023-02-22T17:40:39.625Z,101296.69
2023-02-22T17:43:08.916Z,101305.88
2023-02-22T17:45:39.315Z,101305.09
2023-02-22T17:48:06.156Z,101302.41
2023-02-22T17:50:32.849Z,101298.44
2023-02-22T17:53:02.487Z,101301.94
2023-02-22T17:55:30.173Z,101303.03
2023-02-22T17:58:00.464Z,101300.66
2023-02-22T18:00:35.317Z,101306.06
2023-02-22T18:03:07.510Z,101305.72
2023-02-22T18:05:40.337Z,101311.13
2023-02-22T18:08:07.383Z,101315.75
2023-02-22T18:10:33.853Z,101311.59
2023-02-22T18:13:02.158Z,101309.72
2023-02-22T18:15:29.508Z,101309.34
2023-02-22T18:17:56.309Z,101306.19
2023-02-22T18:20:44.028Z,101312.06
2023-02-22T18:23:16.790Z,101311.28
2023-02-22T18:26:07.743Z,101319.38
2023-02-22T18:28:36.544Z,101313.19
2023-02-22T18:31:07.880Z,101320.50
2023-02-22T18:33:34.468Z,101316.19
2023-02-22T18:36:01.052Z,101318.13
2023-02-22T18:38:27.885Z,101319.69
2023-02-22T18:41:06.873Z,101321.59
2023-02-22T18:43:36.731Z,101315.41
2023-02-22T18:46:11.469Z,101316.53
2023-02-22T18:48:38.649Z,101324.63
2023-02-22T18:51:09.633Z,101315.75
2023-02-22T18:53:38.001Z,101322.25
2023-02-22T18:56:07.220Z,101323.03
2023-02-22T18:58:40.934Z,101318.75
2023-02-22T19:01:07.626Z,101319.84
2023-02-22T19:03:38.285Z,101323.69
2023-02-22T19:06:10.550Z,101320.19
2023-02-22T19:08:42.651Z,101319.06
2023-02-22T19:11:12.083Z,101325.25
2023-02-22T19:13:38.689Z,101322.09
2023-02-22T19:16:07.343Z,101321.78
2023-02-22T19:18:34.109Z,101315.59
2023-02-22T19:21:03.165Z,101314.78
2023-02-22T19:23:34.925Z,101312.09
2023-02-22T19:26:03.157Z,101327.81
2023-02-22T19:28:34.327Z,101327.81
2023-02-22T19:31:40.262Z,101327.81
2023-02-22T19:34:10.915Z,101330.50
2023-02-22T19:36:39.208Z,101323.88
2023-02-22T19:39:05.845Z,101324.66
2023-02-22T19:41:32.432Z,101323.06
2023-02-22T19:43:59.277Z,101322.28
2023-02-22T19:46:25.821Z,101329.56
2023-02-22T19:48:55.152Z,101330.22
2023-02-22T19:51:26.196Z,101342.91
2023-02-22T19:54:05.327Z,101342.09
2023-02-22T19:56:38.084Z,101344.31
2023-02-22T19:59:09.540Z,101358.28
2023-02-22T20:01:36.796Z,101353.53
2023-02-22T20:04:06.119Z,101355.44
2023-02-22T20:06:43.049Z,101355.75
2023-02-22T20:09:14.028Z,101352.59
2023-02-22T20:11:40.629Z,101357.50
2023-02-22T20:14:07.109Z,101361.31
2023-02-22T20:16:35.414Z,101362.13
2023-02-22T20:19:09.166Z,101354.81
2023-02-22T20:21:36.609Z,101362.91
2023-02-22T20:24:06.910Z,101361.00
2023-02-22T20:26:35.505Z,101371.78
2023-02-22T20:29:04.258Z,101363.69
2023-02-22T20:31:32.849Z,101373.69
2023-02-22T20:34:00.977Z,101364.81
2023-02-22T20:36:29.468Z,101376.69
2023-02-22T20:38:59.135Z,101375.13
2023-02-22T20:41:28.022Z,101377.31
2023-02-22T20:43:55.913Z,101372.28
2023-02-22T20:46:24.679Z,101376.84
2023-02-22T20:48:58.577Z,101371.78
2023-02-22T20:51:26.632Z,101362.91
2023-02-22T20:53:53.961Z,101366.72
2023-02-22T20:56:23.089Z,101368.94
2023-02-22T20:58:53.399Z,101377.66
2023-02-22T21:01:22.391Z,101385.75
2023-02-22T21:03:49.947Z,101388.28
2023-02-22T21:06:18.733Z,101388.59
2023-02-22T21:08:49.194Z,101386.72
2023-02-22T21:11:18.228Z,101379.72
2023-02-22T21:13:45.122Z,101383.88
2023-02-22T21:16:21.474Z,101384.97
2023-02-22T21:18:53.985Z,101380.22
2023-02-22T21:21:21.464Z,101385.28
2023-02-22T21:23:50.500Z,101386.56
2023-02-22T21:26:20.914Z,101386.25
2023-02-22T21:28:51.152Z,101379.25
2023-02-22T21:31:19.782Z,101381.19
2023-02-22T21:33:53.047Z,101384.97
2023-02-22T21:36:20.845Z,101379.59
2023-02-22T21:38:53.481Z,101381.81
2023-02-22T21:41:21.277Z,101383.41
2023-02-22T21:43:51.808Z,101379.91
2023-02-22T21:46:19.121Z,101384.81
2023-02-22T21:48:48.757Z,101389.41
2023-02-22T21:51:17.590Z,101386.56
2023-02-22T21:53:48.761Z,101384.66
2023-02-22T21:56:19.651Z,101389.25
2023-02-22T21:58:47.529Z,101381.19
2023-02-22T22:01:17.547Z,101387.19
2023-02-22T22:03:45.319Z,101381.81
2023-02-22T22:06:13.718Z,101387.19
2023-02-22T22:08:43.168Z,101395.28
2023-02-22T22:11:30.526Z,101386.06
2023-02-22T22:13:58.144Z,101383.06
2023-02-22T22:16:27.678Z,101386.88
2023-02-22T22:18:55.346Z,101387.50
2023-02-22T22:21:23.950Z,101391.00
2023-02-22T22:23:54.489Z,101381.81
2023-02-22T22:26:22.185Z,101381.81
2023-02-22T22:28:51.987Z,101382.59
2023-02-22T22:31:21.067Z,101381.50
2023-02-22T22:33:47.861Z,101383.88
2023-02-22T22:36:16.668Z,101384.66
2023-02-22T22:38:46.909Z,101386.25
2023-02-22T22:41:15.557Z,101387.81
2023-02-22T22:43:56.517Z,101388.59
2023-02-22T22:46:23.425Z,101391.31
2023-02-22T22:48:58.421Z,101387.03
2023-02-22T22:51:24.977Z,101387.34
2023-02-22T22:53:51.969Z,101389.25
2023-02-22T22:56:21.733Z,101386.88
2023-02-22T22:58:54.186Z,101385.75
2023-02-22T23:01:27.151Z,101379.28
2023-02-22T23:03:55.619Z,101386.56
2023-02-22T23:06:28.181Z,101384.66
2023-02-22T23:09:19.064Z,101382.28
2023-02-22T23:11:53.616Z,101381.50
2023-02-22T23:14:24.215Z,101382.91
2023-02-22T23:16:59.955Z,101386.72
2023-02-22T23:19:26.577Z,101392.13
2023-02-22T23:21:53.041Z,101385.13
2023-02-22T23:24:21.193Z,101397.03
2023-02-22T23:26:51.420Z,101397.03
2023-02-22T23:29:28.061Z,101394.34
2023-02-22T23:31:55.088Z,101394.34
2023-02-22T23:34:23.329Z,101399.72
2023-02-22T23:36:53.841Z,101399.72
2023-02-22T23:39:23.207Z,101405.91
2023-02-22T23:42:01.972Z,101410.97
2023-02-22T23:44:28.982Z,101413.00
2023-02-22T23:46:56.165Z,101407.63
2023-02-22T23:49:35.544Z,101411.13
2023-02-22T23:52:03.029Z,101416.22
2023-02-22T23:54:36.287Z,101407.31
2023-02-22T23:57:04.611Z,101404.63
2023-02-22T23:59:32.167Z,101410.81
